PWSweather.com
Personal Weather Stations
Station Observations
KNYSIDNE1
East Masonville, Masonville, NY 13804

East MasonvilleMasonville, NY 13804

Lat: 42.26, Lon: -75.31

Elevation: 1581

Station Type: Davis WMII

http://eastmasonvilleweather.com

Latest ConditionsUpdated 4:10:01 PM EDT Monday, Sep 24, 2018
Currently Today's Max Today's Min Today's Average
Temperature 58.6°F14.8°C 69.1°F20.6°C 43.2°F6.2°C 52.2°F11.2°C
Dew Point 49.3°F9.6°C 53.0°F11.7°C 42.1°F5.6°C 46.8°F8.2°C
Winds 4.6 mph SE7.4 kmh SE 6.9 mph -11.1 kmh - - 1.7 mph 2.7 kmh
Wind Gusts 9.2 mph14.8 kmh 13.8 mph22.2 kmh - -
Humidity 71% 99% 51% 84%
Pressure 30.44 in1030.8 mb 30.46 in1031.5 mb 30.32 in1026.8 mb -
Precipitation - 0.01 in0.3 mm - -
Hour Temp Dew Point Humidity Winds Wind Gusts Pressure Precip Precip Rate Daily Precip Total
04:10 PM 58.6°F14.8°C 49.3°F9.6°C 71% 4.6 mph SE7.4 kmh SE 9.2 mph14.8 kmh 30.44 in1030.8 mb - 0.00 in0.0 mm 0.01 in0.3 mm
04:00 PM 58.9°F14.9°C 49.1°F9.5°C 70% 2.3 mph S3.7 kmh S 6.9 mph11.1 kmh 30.44 in1030.8 mb - 0.00 in0.0 mm 0.01 in0.3 mm
03:50 PM 59.3°F15.2°C 50.3°F10.2°C 72% 3.5 mph SE5.6 kmh SE 12.7 mph20.4 kmh 30.44 in1030.8 mb - 0.00 in0.0 mm 0.01 in0.3 mm
03:40 PM 59.9°F15.5°C 49.3°F9.6°C 68% 6.9 mph SE11.1 kmh SE 9.2 mph14.8 kmh 30.44 in1030.8 mb - 0.00 in0.0 mm 0.01 in0.3 mm
03:30 PM 60.6°F15.9°C 49.6°F9.8°C 67% 5.8 mph SE9.3 kmh SE 11.5 mph18.5 kmh 30.45 in1031.2 mb - 0.00 in0.0 mm 0.01 in0.3 mm
03:20 PM 61.8°F16.6°C 49.9°F9.9°C 65% 4.6 mph S7.4 kmh S 10.4 mph16.7 kmh 30.44 in1030.8 mb - 0.00 in0.0 mm 0.01 in0.3 mm
03:10 PM 62.1°F16.7°C 51.8°F11.0°C 69% 3.5 mph SSE5.6 kmh SSE 4.6 mph7.4 kmh 30.44 in1030.8 mb - 0.00 in0.0 mm 0.01 in0.3 mm
03:00 PM 62.2°F16.8°C 50.3°F10.2°C 65% 4.6 mph S7.4 kmh S 5.8 mph9.3 kmh 30.44 in1030.8 mb - 0.00 in0.0 mm 0.01 in0.3 mm
02:50 PM 63.2°F17.3°C 50.4°F10.2°C 63% 4.6 mph SE7.4 kmh SE 11.5 mph18.5 kmh 30.45 in1031.2 mb - 0.00 in0.0 mm 0.01 in0.3 mm
02:40 PM 64.4°F18.0°C 49.8°F9.9°C 59% 6.9 mph SSW11.1 kmh SSW 9.2 mph14.8 kmh 30.45 in1031.2 mb - 0.00 in0.0 mm 0.01 in0.3 mm
02:30 PM 65.2°F18.4°C 51.4°F10.8°C 61% 5.8 mph SSE9.3 kmh SSE 9.2 mph14.8 kmh 30.45 in1031.2 mb - 0.00 in0.0 mm 0.01 in0.3 mm
02:20 PM 65.2°F18.4°C 52.3°F11.3°C 63% 5.8 mph SE9.3 kmh SE 10.4 mph16.7 kmh 30.45 in1031.2 mb - 0.00 in0.0 mm 0.01 in0.3 mm
02:10 PM 64.8°F18.2°C 51.5°F10.8°C 62% 5.8 mph SE9.3 kmh SE 9.2 mph14.8 kmh 30.45 in1031.2 mb - 0.00 in0.0 mm 0.01 in0.3 mm
02:00 PM 65.2°F18.4°C 51.4°F10.8°C 61% 3.5 mph SSE5.6 kmh SSE 9.2 mph14.8 kmh 30.45 in1031.2 mb - 0.00 in0.0 mm 0.01 in0.3 mm
01:50 PM 66.7°F19.3°C 50.5°F10.3°C 56% 3.5 mph S5.6 kmh S 4.6 mph7.4 kmh 30.44 in1030.8 mb - 0.00 in0.0 mm 0.01 in0.3 mm
01:40 PM 67.6°F19.8°C 51.4°F10.8°C 56% 1.2 mph S1.9 kmh S 4.6 mph7.4 kmh 30.44 in1030.8 mb - 0.00 in0.0 mm 0.01 in0.3 mm
01:30 PM 68.1°F20.1°C 51.3°F10.7°C 55% 5.8 mph S9.3 kmh S 11.5 mph18.5 kmh 30.45 in1031.2 mb - 0.00 in0.0 mm 0.01 in0.3 mm
01:20 PM 68.7°F20.4°C 49.9°F9.9°C 51% 2.3 mph SW3.7 kmh SW 3.5 mph5.6 kmh 30.44 in1030.8 mb - 0.00 in0.0 mm 0.01 in0.3 mm
01:10 PM 69.1°F20.6°C 52.2°F11.2°C 55% 2.3 mph SSE3.7 kmh SSE 5.8 mph9.3 kmh 30.45 in1031.2 mb - 0.00 in0.0 mm 0.01 in0.3 mm
01:00 PM 68.9°F20.5°C 52.6°F11.4°C 56% 3.5 mph SE5.6 kmh SE 5.8 mph9.3 kmh 30.45 in1031.2 mb - 0.00 in0.0 mm 0.01 in0.3 mm
12:50 PM 68.1°F20.1°C 52.7°F11.5°C 58% 4.6 mph SSE7.4 kmh SSE 4.6 mph7.4 kmh 30.44 in1030.8 mb - 0.00 in0.0 mm 0.01 in0.3 mm
12:40 PM 67.6°F19.8°C 49.9°F9.9°C 53% 5.8 mph SE9.3 kmh SE 11.5 mph18.5 kmh 30.45 in1031.2 mb - 0.00 in0.0 mm 0.01 in0.3 mm
12:30 PM 67.3°F19.6°C 49.1°F9.5°C 52% 4.6 mph ESE7.4 kmh ESE 11.5 mph18.5 kmh 30.44 in1030.8 mb - 0.00 in0.0 mm 0.01 in0.3 mm
12:20 PM 66.6°F19.2°C 52.3°F11.3°C 60% 5.8 mph SE9.3 kmh SE 10.4 mph16.7 kmh 30.45 in1031.2 mb - 0.00 in0.0 mm 0.01 in0.3 mm
12:10 PM 66.4°F19.1°C 49.7°F9.8°C 55% 6.9 mph S11.1 kmh S 12.7 mph20.4 kmh 30.44 in1030.8 mb - 0.00 in0.0 mm 0.01 in0.3 mm
12:00 PM 65.9°F18.8°C 51.6°F10.9°C 60% 6.9 mph S11.1 kmh S 13.8 mph22.2 kmh 30.44 in1030.8 mb - 0.00 in0.0 mm 0.01 in0.3 mm
11:50 AM 65.1°F18.4°C 50.9°F10.5°C 60% 4.6 mph S7.4 kmh S 11.5 mph18.5 kmh 30.45 in1031.2 mb - 0.00 in0.0 mm 0.01 in0.3 mm
11:40 AM 64.6°F18.1°C 50.8°F10.4°C 61% 5.8 mph S9.3 kmh S 10.4 mph16.7 kmh 30.45 in1031.2 mb - 0.00 in0.0 mm 0.01 in0.3 mm
11:30 AM 64.1°F17.8°C 52.0°F11.1°C 65% 2.3 mph S3.7 kmh S 3.5 mph5.6 kmh 30.45 in1031.2 mb - 0.00 in0.0 mm 0.01 in0.3 mm
11:20 AM 63.3°F17.4°C 53.0°F11.7°C 69% 3.5 mph ESE5.6 kmh ESE 4.6 mph7.4 kmh 30.45 in1031.2 mb - 0.00 in0.0 mm 0.01 in0.3 mm
11:10 AM 62.6°F17.0°C 51.1°F10.6°C 66% 4.6 mph SSE7.4 kmh SSE 8.1 mph13.0 kmh 30.46 in1031.5 mb - 0.00 in0.0 mm 0.01 in0.3 mm
11:00 AM 61.7°F16.5°C 53.0°F11.7°C 73% 4.6 mph SE7.4 kmh SE 4.6 mph7.4 kmh 30.45 in1031.2 mb - 0.00 in0.0 mm 0.01 in0.3 mm
10:50 AM 60.6°F15.9°C 52.3°F11.3°C 74% 3.5 mph SE5.6 kmh SE 8.1 mph13.0 kmh 30.45 in1031.2 mb - 0.00 in0.0 mm 0.01 in0.3 mm
10:40 AM 59.7°F15.4°C 52.4°F11.3°C 77% 3.5 mph SE5.6 kmh SE 8.1 mph13.0 kmh 30.46 in1031.5 mb - 0.00 in0.0 mm 0.01 in0.3 mm
10:30 AM 58.3°F14.6°C 51.1°F10.6°C 77% 2.3 mph SE3.7 kmh SE 5.8 mph9.3 kmh 30.46 in1031.5 mb - 0.00 in0.0 mm 0.01 in0.3 mm
10:20 AM 56.8°F13.8°C 51.7°F10.9°C 83% 3.5 mph ESE5.6 kmh ESE 6.9 mph11.1 kmh 30.45 in1031.2 mb - 0.00 in0.0 mm 0.01 in0.3 mm
10:10 AM 55.3°F12.9°C 52.4°F11.3°C 90% 3.5 mph E5.6 kmh E 5.8 mph9.3 kmh 30.45 in1031.2 mb - 0.00 in0.0 mm 0.01 in0.3 mm
10:00 AM 53.9°F12.2°C 52.2°F11.2°C 94% 1.2 mph SE1.9 kmh SE 3.5 mph5.6 kmh 30.45 in1031.2 mb - 0.00 in0.0 mm 0.01 in0.3 mm
09:50 AM 52.6°F11.4°C 52.0°F11.1°C 98% 1.2 mph ESE1.9 kmh ESE 2.3 mph3.7 kmh 30.45 in1031.2 mb - 0.00 in0.0 mm 0.01 in0.3 mm
09:40 AM 51.6°F10.9°C 51.0°F10.6°C 98% Calm Calm -- 30.45 in1031.2 mb - 0.00 in0.0 mm 0.01 in0.3 mm
09:30 AM 50.8°F10.4°C 50.5°F10.3°C 99% Calm Calm 1.2 mph1.9 kmh 30.45 in1031.2 mb - 0.00 in0.0 mm 0.01 in0.3 mm
09:20 AM 49.9°F9.9°C 49.7°F9.8°C 99% Calm Calm -- 30.45 in1031.2 mb - 0.00 in0.0 mm 0.01 in0.3 mm
09:10 AM 49.1°F9.5°C 48.8°F9.3°C 99% Calm Calm -- 30.45 in1031.2 mb - 0.00 in0.0 mm 0.01 in0.3 mm
09:00 AM 48.2°F9.0°C 47.7°F8.7°C 98% Calm Calm -- 30.45 in1031.2 mb - 0.00 in0.0 mm 0.01 in0.3 mm
08:50 AM 47.5°F8.6°C 46.9°F8.3°C 98% Calm Calm -- 30.45 in1031.2 mb - 0.00 in0.0 mm 0.01 in0.3 mm
08:40 AM 46.7°F8.2°C 46.2°F7.9°C 98% Calm Calm -- 30.45 in1031.2 mb - 0.00 in0.0 mm 0.01 in0.3 mm
08:30 AM 45.9°F7.7°C 45.4°F7.4°C 98% Calm Calm -- 30.44 in1030.8 mb - 0.00 in0.0 mm 0.01 in0.3 mm
08:20 AM 45.2°F7.3°C 44.7°F7.1°C 98% Calm Calm -- 30.44 in1030.8 mb - 0.00 in0.0 mm 0.01 in0.3 mm
08:10 AM 44.7°F7.1°C 44.2°F6.8°C 98% Calm Calm -- 30.44 in1030.8 mb - 0.00 in0.0 mm 0.01 in0.3 mm
08:00 AM 44.1°F6.7°C 43.3°F6.3°C 97% Calm Calm -- 30.43 in1030.5 mb - 0.00 in0.0 mm 0.01 in0.3 mm
07:50 AM 43.7°F6.5°C 42.9°F6.1°C 97% Calm Calm -- 30.43 in1030.5 mb - 0.00 in0.0 mm 0.01 in0.3 mm
07:40 AM 43.4°F6.3°C 42.6°F5.9°C 97% Calm Calm -- 30.43 in1030.5 mb - 0.00 in0.0 mm 0.01 in0.3 mm
07:30 AM 43.2°F6.2°C 42.1°F5.6°C 96% Calm Calm -- 30.42 in1030.1 mb - 0.00 in0.0 mm 0.01 in0.3 mm
07:20 AM 43.2°F6.2°C 42.1°F5.6°C 96% Calm Calm -- 30.42 in1030.1 mb - 0.00 in0.0 mm 0.01 in0.3 mm
07:10 AM 43.4°F6.3°C 42.3°F5.7°C 96% Calm Calm -- 30.41 in1029.8 mb - 0.00 in0.0 mm 0.01 in0.3 mm
07:00 AM 43.4°F6.3°C 42.3°F5.7°C 96% Calm Calm -- 30.41 in1029.8 mb - 0.00 in0.0 mm 0.01 in0.3 mm
06:50 AM 43.6°F6.4°C 42.5°F5.8°C 96% Calm Calm -- 30.41 in1029.8 mb - 0.00 in0.0 mm 0.01 in0.3 mm
06:40 AM 43.7°F6.5°C 42.6°F5.9°C 96% Calm Calm -- 30.40 in1029.5 mb - 0.01 in0.3 mm 0.01 in0.3 mm
06:30 AM 43.7°F6.5°C 42.6°F5.9°C 96% Calm Calm -- 30.40 in1029.5 mb - 0.00 in0.0 mm 0.00 in0.0 mm
06:20 AM 43.7°F6.5°C 42.6°F5.9°C 96% Calm Calm -- 30.39 in1029.1 mb - 0.00 in0.0 mm 0.00 in0.0 mm
06:10 AM 43.7°F6.5°C 42.6°F5.9°C 96% Calm Calm -- 30.39 in1029.1 mb - 0.00 in0.0 mm 0.00 in0.0 mm
06:00 AM 43.7°F6.5°C 42.6°F5.9°C 96% Calm Calm -- 30.38 in1028.8 mb - 0.00 in0.0 mm 0.00 in0.0 mm
05:50 AM 44.0°F6.7°C 42.7°F5.9°C 95% Calm Calm -- 30.38 in1028.8 mb - 0.00 in0.0 mm 0.00 in0.0 mm
05:40 AM 44.4°F6.9°C 43.3°F6.3°C 96% Calm Calm -- 30.38 in1028.8 mb - 0.00 in0.0 mm 0.00 in0.0 mm
05:30 AM 44.7°F7.1°C 43.7°F6.5°C 96% Calm Calm -- 30.38 in1028.8 mb - 0.00 in0.0 mm 0.00 in0.0 mm
05:20 AM 45.0°F7.2°C 44.0°F6.7°C 96% Calm Calm -- 30.37 in1028.4 mb - 0.00 in0.0 mm 0.00 in0.0 mm
05:10 AM 45.4°F7.4°C 44.3°F6.8°C 96% Calm Calm -- 30.37 in1028.4 mb - 0.00 in0.0 mm 0.00 in0.0 mm
05:00 AM 45.7°F7.6°C 44.7°F7.1°C 96% Calm Calm -- 30.37 in1028.4 mb - 0.00 in0.0 mm 0.00 in0.0 mm
04:50 AM 45.9°F7.7°C 45.1°F7.3°C 97% Calm Calm -- 30.37 in1028.4 mb - 0.00 in0.0 mm 0.00 in0.0 mm
04:40 AM 45.8°F7.7°C 45.0°F7.2°C 97% Calm Calm -- 30.37 in1028.4 mb - 0.00 in0.0 mm 0.00 in0.0 mm
04:30 AM 45.7°F7.6°C 44.9°F7.2°C 97% Calm Calm 1.2 mph1.9 kmh 30.37 in1028.4 mb - 0.00 in0.0 mm 0.00 in0.0 mm
04:20 AM 45.4°F7.4°C 44.6°F7.0°C 97% Calm Calm -- 30.37 in1028.4 mb - 0.00 in0.0 mm 0.00 in0.0 mm
04:10 AM 45.0°F7.2°C 44.2°F6.8°C 97% Calm Calm -- 30.36 in1028.1 mb - 0.00 in0.0 mm 0.00 in0.0 mm
04:00 AM 44.6°F7.0°C 43.8°F6.6°C 97% Calm Calm -- 30.36 in1028.1 mb - 0.00 in0.0 mm 0.00 in0.0 mm
03:50 AM 44.2°F6.8°C 43.4°F6.3°C 97% Calm Calm -- 30.36 in1028.1 mb - 0.00 in0.0 mm 0.00 in0.0 mm
03:40 AM 43.7°F6.5°C 42.6°F5.9°C 96% Calm Calm 1.2 mph1.9 kmh 30.36 in1028.1 mb - 0.00 in0.0 mm 0.00 in0.0 mm
03:30 AM 43.8°F6.6°C 42.7°F5.9°C 96% Calm Calm -- 30.36 in1028.1 mb - 0.00 in0.0 mm 0.00 in0.0 mm
03:20 AM 43.7°F6.5°C 42.6°F5.9°C 96% Calm Calm -- 30.35 in1027.8 mb - 0.00 in0.0 mm 0.00 in0.0 mm
03:10 AM 43.6°F6.4°C 42.5°F5.8°C 96% Calm Calm -- 30.35 in1027.8 mb - 0.00 in0.0 mm 0.00 in0.0 mm
03:00 AM 43.4°F6.3°C 42.1°F5.6°C 95% Calm Calm -- 30.35 in1027.8 mb - 0.00 in0.0 mm 0.00 in0.0 mm
02:50 AM 43.8°F6.6°C 42.5°F5.8°C 95% Calm Calm -- 30.35 in1027.8 mb - 0.00 in0.0 mm 0.00 in0.0 mm
02:40 AM 44.1°F6.7°C 43.0°F6.1°C 96% Calm Calm -- 30.35 in1027.8 mb - 0.00 in0.0 mm 0.00 in0.0 mm
02:30 AM 43.9°F6.6°C 42.6°F5.9°C 95% Calm Calm -- 30.35 in1027.8 mb - 0.00 in0.0 mm 0.00 in0.0 mm
02:20 AM 43.9°F6.6°C 42.6°F5.9°C 95% Calm Calm -- 30.35 in1027.8 mb - 0.00 in0.0 mm 0.00 in0.0 mm
02:10 AM 44.1°F6.7°C 42.5°F5.8°C 94% Calm Calm -- 30.35 in1027.8 mb - 0.00 in0.0 mm 0.00 in0.0 mm
02:00 AM 44.5°F6.9°C 43.4°F6.3°C 96% Calm Calm -- 30.34 in1027.4 mb - 0.00 in0.0 mm 0.00 in0.0 mm
01:50 AM 44.3°F6.8°C 43.0°F6.1°C 95% Calm Calm -- 30.34 in1027.4 mb - 0.00 in0.0 mm 0.00 in0.0 mm
01:40 AM 44.5°F6.9°C 43.2°F6.2°C 95% Calm Calm -- 30.34 in1027.4 mb - 0.00 in0.0 mm 0.00 in0.0 mm
01:30 AM 44.5°F6.9°C 43.2°F6.2°C 95% Calm Calm -- 30.34 in1027.4 mb - 0.00 in0.0 mm 0.00 in0.0 mm
01:20 AM 44.6°F7.0°C 43.3°F6.3°C 95% Calm Calm -- 30.34 in1027.4 mb - 0.00 in0.0 mm 0.00 in0.0 mm
01:10 AM 44.6°F7.0°C 43.2°F6.2°C 95% Calm Calm -- 30.34 in1027.4 mb - 0.00 in0.0 mm 0.00 in0.0 mm
01:00 AM 44.5°F6.9°C 43.2°F6.2°C 95% Calm Calm -- 30.34 in1027.4 mb - 0.00 in0.0 mm 0.00 in0.0 mm
12:50 AM 44.6°F7.0°C 43.0°F6.1°C 94% Calm Calm -- 30.34 in1027.4 mb - 0.00 in0.0 mm 0.00 in0.0 mm
12:40 AM 44.9°F7.2°C 43.6°F6.4°C 95% Calm Calm -- 30.34 in1027.4 mb - 0.00 in0.0 mm 0.00 in0.0 mm
12:30 AM 44.8°F7.1°C 43.5°F6.4°C 95% Calm Calm -- 30.33 in1027.1 mb - 0.00 in0.0 mm 0.00 in0.0 mm
12:20 AM 44.9°F7.2°C 43.3°F6.3°C 94% Calm Calm -- 30.33 in1027.1 mb - 0.00 in0.0 mm 0.00 in0.0 mm
12:10 AM 45.1°F7.3°C 43.5°F6.4°C 94% Calm Calm -- 30.33 in1027.1 mb - 0.00 in0.0 mm 0.00 in0.0 mm
12:00 AM 45.5°F7.5°C 43.9°F6.6°C 94% Calm Calm -- 30.32 in1026.8 mb - 0.00 in0.0 mm 0.00 in0.0 mm